sensor_id;sensor_type;location;lat;lon;timestamp;P1;durP1;ratioP1;P2;durP2;ratioP2
31638;SDS011;18248;51.522;7.020;2022-10-16T00:01:35;11.07;;;3.17;;
31638;SDS011;18248;51.522;7.020;2022-10-16T00:04:33;9.82;;;2.72;;
31638;SDS011;18248;51.522;7.020;2022-10-16T00:07:32;7.93;;;2.88;;
31638;SDS011;18248;51.522;7.020;2022-10-16T00:10:30;7.28;;;2.70;;
31638;SDS011;18248;51.522;7.020;2022-10-16T00:13:29;10.68;;;2.80;;
31638;SDS011;18248;51.522;7.020;2022-10-16T00:16:28;5.78;;;2.58;;
31638;SDS011;18248;51.522;7.020;2022-10-16T00:19:27;5.90;;;2.20;;
31638;SDS011;18248;51.522;7.020;2022-10-16T00:22:26;4.57;;;2.10;;
31638;SDS011;18248;51.522;7.020;2022-10-16T00:25:25;3.72;;;2.03;;
31638;SDS011;18248;51.522;7.020;2022-10-16T00:28:25;12.73;;;2.53;;
31638;SDS011;18248;51.522;7.020;2022-10-16T00:31:25;6.43;;;2.47;;
31638;SDS011;18248;51.522;7.020;2022-10-16T00:34:29;6.85;;;2.72;;
31638;SDS011;18248;51.522;7.020;2022-10-16T00:37:28;7.15;;;2.75;;
31638;SDS011;18248;51.522;7.020;2022-10-16T00:40:26;8.52;;;2.70;;
31638;SDS011;18248;51.522;7.020;2022-10-16T00:43:47;6.05;;;2.97;;
31638;SDS011;18248;51.522;7.020;2022-10-16T00:46:47;7.15;;;2.95;;
31638;SDS011;18248;51.522;7.020;2022-10-16T00:49:47;8.55;;;2.67;;
31638;SDS011;18248;51.522;7.020;2022-10-16T00:52:49;6.43;;;2.75;;
31638;SDS011;18248;51.522;7.020;2022-10-16T00:55:49;6.53;;;2.50;;
31638;SDS011;18248;51.522;7.020;2022-10-16T00:58:47;7.55;;;2.72;;
31638;SDS011;18248;51.522;7.020;2022-10-16T01:01:46;5.20;;;2.47;;
31638;SDS011;18248;51.522;7.020;2022-10-16T01:04:46;5.20;;;2.50;;
31638;SDS011;18248;51.522;7.020;2022-10-16T01:08:04;4.10;;;2.27;;
31638;SDS011;18248;51.522;7.020;2022-10-16T01:11:13;5.90;;;2.33;;
31638;SDS011;18248;51.522;7.020;2022-10-16T01:17:34;5.97;;;2.03;;
31638;SDS011;18248;51.522;7.020;2022-10-16T01:20:41;4.57;;;2.28;;
31638;SDS011;18248;51.522;7.020;2022-10-16T01:24:01;5.00;;;2.30;;
31638;SDS011;18248;51.522;7.020;2022-10-16T01:27:30;7.05;;;2.25;;
31638;SDS011;18248;51.522;7.020;2022-10-16T01:30:33;10.23;;;2.53;;
31638;SDS011;18248;51.522;7.020;2022-10-16T01:33:35;5.05;;;2.03;;
31638;SDS011;18248;51.522;7.020;2022-10-16T01:37:02;7.13;;;2.45;;
31638;SDS011;18248;51.522;7.020;2022-10-16T01:40:07;7.20;;;2.20;;
31638;SDS011;18248;51.522;7.020;2022-10-16T01:43:11;3.97;;;1.90;;
31638;SDS011;18248;51.522;7.020;2022-10-16T01:49:13;5.03;;;2.08;;
31638;SDS011;18248;51.522;7.020;2022-10-16T01:52:15;7.43;;;2.25;;
31638;SDS011;18248;51.522;7.020;2022-10-16T01:55:19;8.82;;;2.53;;
31638;SDS011;18248;51.522;7.020;2022-10-16T01:58:22;7.57;;;1.67;;
31638;SDS011;18248;51.522;7.020;2022-10-16T02:01:23;4.35;;;1.70;;
31638;SDS011;18248;51.522;7.020;2022-10-16T02:04:29;4.75;;;1.90;;
31638;SDS011;18248;51.522;7.020;2022-10-16T02:07:36;2.80;;;1.50;;
31638;SDS011;18248;51.522;7.020;2022-10-16T02:10:35;6.00;;;1.60;;
31638;SDS011;18248;51.522;7.020;2022-10-16T02:16:40;5.68;;;1.42;;
31638;SDS011;18248;51.522;7.020;2022-10-16T02:19:40;4.30;;;1.40;;
31638;SDS011;18248;51.522;7.020;2022-10-16T02:22:40;6.57;;;1.67;;
31638;SDS011;18248;51.522;7.020;2022-10-16T02:25:42;4.47;;;1.45;;
31638;SDS011;18248;51.522;7.020;2022-10-16T02:28:45;3.22;;;1.33;;
31638;SDS011;18248;51.522;7.020;2022-10-16T02:31:52;7.60;;;1.40;;
31638;SDS011;18248;51.522;7.020;2022-10-16T02:34:58;4.32;;;1.30;;
31638;SDS011;18248;51.522;7.020;2022-10-16T02:37:58;4.00;;;1.55;;
31638;SDS011;18248;51.522;7.020;2022-10-16T02:40:57;2.65;;;1.40;;
31638;SDS011;18248;51.522;7.020;2022-10-16T02:43:58;5.03;;;1.30;;
31638;SDS011;18248;51.522;7.020;2022-10-16T02:46:56;5.43;;;1.35;;
31638;SDS011;18248;51.522;7.020;2022-10-16T02:49:55;3.28;;;1.30;;
31638;SDS011;18248;51.522;7.020;2022-10-16T02:52:53;4.82;;;1.40;;
31638;SDS011;18248;51.522;7.020;2022-10-16T02:55:52;3.83;;;1.30;;
31638;SDS011;18248;51.522;7.020;2022-10-16T02:58:50;2.28;;;1.17;;
31638;SDS011;18248;51.522;7.020;2022-10-16T03:01:49;2.70;;;1.23;;
31638;SDS011;18248;51.522;7.020;2022-10-16T03:04:47;3.63;;;1.27;;
31638;SDS011;18248;51.522;7.020;2022-10-16T03:07:46;3.63;;;1.58;;
31638;SDS011;18248;51.522;7.020;2022-10-16T03:10:46;4.93;;;1.60;;
31638;SDS011;18248;51.522;7.020;2022-10-16T03:13:44;3.40;;;1.05;;
31638;SDS011;18248;51.522;7.020;2022-10-16T03:16:43;5.28;;;1.42;;
31638;SDS011;18248;51.522;7.020;2022-10-16T03:19:41;3.25;;;1.00;;
31638;SDS011;18248;51.522;7.020;2022-10-16T03:22:40;4.13;;;1.10;;
31638;SDS011;18248;51.522;7.020;2022-10-16T03:25:39;3.20;;;1.45;;
31638;SDS011;18248;51.522;7.020;2022-10-16T03:28:37;4.63;;;1.00;;
31638;SDS011;18248;51.522;7.020;2022-10-16T03:31:36;5.03;;;1.33;;
31638;SDS011;18248;51.522;7.020;2022-10-16T03:34:34;1.70;;;1.02;;
31638;SDS011;18248;51.522;7.020;2022-10-16T03:37:33;2.92;;;1.20;;
31638;SDS011;18248;51.522;7.020;2022-10-16T03:40:33;9.48;;;1.13;;
31638;SDS011;18248;51.522;7.020;2022-10-16T03:43:31;5.95;;;1.13;;
31638;SDS011;18248;51.522;7.020;2022-10-16T03:46:30;5.30;;;1.30;;
31638;SDS011;18248;51.522;7.020;2022-10-16T03:49:28;4.72;;;1.00;;
31638;SDS011;18248;51.522;7.020;2022-10-16T03:52:27;2.13;;;1.00;;
31638;SDS011;18248;51.522;7.020;2022-10-16T03:55:25;2.70;;;0.82;;
31638;SDS011;18248;51.522;7.020;2022-10-16T03:58:25;5.55;;;1.25;;
31638;SDS011;18248;51.522;7.020;2022-10-16T04:01:23;2.10;;;1.38;;
31638;SDS011;18248;51.522;7.020;2022-10-16T04:04:22;7.55;;;1.10;;
31638;SDS011;18248;51.522;7.020;2022-10-16T04:07:20;2.70;;;1.05;;
31638;SDS011;18248;51.522;7.020;2022-10-16T04:10:19;2.97;;;1.00;;
31638;SDS011;18248;51.522;7.020;2022-10-16T04:13:18;9.13;;;1.55;;
31638;SDS011;18248;51.522;7.020;2022-10-16T04:16:16;3.33;;;1.48;;
31638;SDS011;18248;51.522;7.020;2022-10-16T04:19:15;3.55;;;1.25;;
31638;SDS011;18248;51.522;7.020;2022-10-16T04:22:14;3.38;;;1.27;;
31638;SDS011;18248;51.522;7.020;2022-10-16T04:25:12;2.55;;;0.95;;
31638;SDS011;18248;51.522;7.020;2022-10-16T04:28:11;3.03;;;1.40;;
31638;SDS011;18248;51.522;7.020;2022-10-16T04:31:11;2.63;;;1.20;;
31638;SDS011;18248;51.522;7.020;2022-10-16T04:34:09;8.80;;;1.30;;
31638;SDS011;18248;51.522;7.020;2022-10-16T04:37:08;4.38;;;1.35;;
31638;SDS011;18248;51.522;7.020;2022-10-16T04:40:06;8.20;;;1.38;;
31638;SDS011;18248;51.522;7.020;2022-10-16T04:43:06;3.00;;;1.40;;
31638;SDS011;18248;51.522;7.020;2022-10-16T04:46:05;2.97;;;1.60;;
31638;SDS011;18248;51.522;7.020;2022-10-16T04:49:04;2.70;;;1.45;;
31638;SDS011;18248;51.522;7.020;2022-10-16T04:52:02;3.40;;;1.23;;
31638;SDS011;18248;51.522;7.020;2022-10-16T04:55:01;5.32;;;1.13;;
31638;SDS011;18248;51.522;7.020;2022-10-16T04:58:00;3.22;;;1.35;;
31638;SDS011;18248;51.522;7.020;2022-10-16T05:00:59;2.65;;;1.05;;
31638;SDS011;18248;51.522;7.020;2022-10-16T05:03:57;4.63;;;1.20;;
31638;SDS011;18248;51.522;7.020;2022-10-16T05:06:56;2.42;;;1.27;;
31638;SDS011;18248;51.522;7.020;2022-10-16T05:09:54;2.35;;;1.35;;
31638;SDS011;18248;51.522;7.020;2022-10-16T05:12:53;4.25;;;1.55;;
31638;SDS011;18248;51.522;7.020;2022-10-16T05:15:51;6.80;;;1.40;;
31638;SDS011;18248;51.522;7.020;2022-10-16T05:18:53;1.95;;;1.10;;
31638;SDS011;18248;51.522;7.020;2022-10-16T05:21:52;2.17;;;1.35;;
31638;SDS011;18248;51.522;7.020;2022-10-16T05:24:50;7.20;;;1.60;;
31638;SDS011;18248;51.522;7.020;2022-10-16T05:27:49;3.25;;;1.38;;
31638;SDS011;18248;51.522;7.020;2022-10-16T05:30:48;6.55;;;1.35;;
31638;SDS011;18248;51.522;7.020;2022-10-16T05:33:46;3.42;;;1.45;;
31638;SDS011;18248;51.522;7.020;2022-10-16T05:36:45;2.75;;;1.30;;
31638;SDS011;18248;51.522;7.020;2022-10-16T05:39:44;3.20;;;1.20;;
31638;SDS011;18248;51.522;7.020;2022-10-16T05:42:42;2.13;;;1.20;;
31638;SDS011;18248;51.522;7.020;2022-10-16T05:45:41;4.47;;;1.30;;
31638;SDS011;18248;51.522;7.020;2022-10-16T05:48:39;4.90;;;1.45;;
31638;SDS011;18248;51.522;7.020;2022-10-16T05:51:38;5.72;;;1.15;;
31638;SDS011;18248;51.522;7.020;2022-10-16T05:54:36;3.97;;;1.48;;
31638;SDS011;18248;51.522;7.020;2022-10-16T05:57:35;1.48;;;1.00;;
31638;SDS011;18248;51.522;7.020;2022-10-16T06:00:35;5.07;;;1.30;;
31638;SDS011;18248;51.522;7.020;2022-10-16T06:03:35;5.53;;;1.23;;
31638;SDS011;18248;51.522;7.020;2022-10-16T06:06:33;3.40;;;1.58;;
31638;SDS011;18248;51.522;7.020;2022-10-16T06:09:34;4.88;;;1.40;;
31638;SDS011;18248;51.522;7.020;2022-10-16T06:12:32;3.58;;;1.20;;
31638;SDS011;18248;51.522;7.020;2022-10-16T06:15:31;3.70;;;1.50;;
31638;SDS011;18248;51.522;7.020;2022-10-16T06:18:29;5.28;;;1.30;;
31638;SDS011;18248;51.522;7.020;2022-10-16T06:21:28;1.95;;;1.27;;
31638;SDS011;18248;51.522;7.020;2022-10-16T06:24:27;3.05;;;1.25;;
31638;SDS011;18248;51.522;7.020;2022-10-16T06:27:26;5.53;;;1.13;;
31638;SDS011;18248;51.522;7.020;2022-10-16T06:30:24;2.15;;;1.13;;
31638;SDS011;18248;51.522;7.020;2022-10-16T06:33:23;2.45;;;1.25;;
31638;SDS011;18248;51.522;7.020;2022-10-16T06:36:21;4.93;;;1.30;;
31638;SDS011;18248;51.522;7.020;2022-10-16T06:39:21;4.40;;;1.15;;
31638;SDS011;18248;51.522;7.020;2022-10-16T06:42:19;6.75;;;1.63;;
31638;SDS011;18248;51.522;7.020;2022-10-16T06:45:18;4.60;;;1.50;;
31638;SDS011;18248;51.522;7.020;2022-10-16T06:48:16;3.65;;;1.35;;
31638;SDS011;18248;51.522;7.020;2022-10-16T06:51:19;2.92;;;1.20;;
31638;SDS011;18248;51.522;7.020;2022-10-16T06:54:19;6.85;;;1.90;;
31638;SDS011;18248;51.522;7.020;2022-10-16T06:57:18;3.35;;;1.50;;
31638;SDS011;18248;51.522;7.020;2022-10-16T07:00:16;3.70;;;1.40;;
31638;SDS011;18248;51.522;7.020;2022-10-16T07:03:16;6.40;;;1.65;;
31638;SDS011;18248;51.522;7.020;2022-10-16T07:06:16;4.47;;;1.70;;
31638;SDS011;18248;51.522;7.020;2022-10-16T07:09:16;5.45;;;1.50;;
31638;SDS011;18248;51.522;7.020;2022-10-16T07:12:15;5.93;;;1.52;;
31638;SDS011;18248;51.522;7.020;2022-10-16T07:15:13;3.58;;;2.15;;
31638;SDS011;18248;51.522;7.020;2022-10-16T07:18:12;5.28;;;1.60;;
31638;SDS011;18248;51.522;7.020;2022-10-16T07:21:15;4.78;;;1.85;;
31638;SDS011;18248;51.522;7.020;2022-10-16T07:24:15;7.30;;;1.80;;
31638;SDS011;18248;51.522;7.020;2022-10-16T07:27:14;3.95;;;1.63;;
31638;SDS011;18248;51.522;7.020;2022-10-16T07:30:14;5.10;;;1.67;;
31638;SDS011;18248;51.522;7.020;2022-10-16T07:33:14;3.83;;;1.85;;
31638;SDS011;18248;51.522;7.020;2022-10-16T07:36:14;4.53;;;1.50;;
31638;SDS011;18248;51.522;7.020;2022-10-16T07:39:14;1.70;;;1.40;;
31638;SDS011;18248;51.522;7.020;2022-10-16T07:42:12;5.13;;;1.88;;
31638;SDS011;18248;51.522;7.020;2022-10-16T07:45:12;4.80;;;1.67;;
31638;SDS011;18248;51.522;7.020;2022-10-16T07:48:12;3.50;;;1.73;;
31638;SDS011;18248;51.522;7.020;2022-10-16T07:51:11;5.63;;;1.50;;
31638;SDS011;18248;51.522;7.020;2022-10-16T07:54:10;4.28;;;1.40;;
31638;SDS011;18248;51.522;7.020;2022-10-16T07:57:08;4.00;;;1.40;;
31638;SDS011;18248;51.522;7.020;2022-10-16T08:00:07;3.80;;;1.52;;
31638;SDS011;18248;51.522;7.020;2022-10-16T08:03:11;7.47;;;1.30;;
31638;SDS011;18248;51.522;7.020;2022-10-16T08:06:09;3.47;;;1.50;;
31638;SDS011;18248;51.522;7.020;2022-10-16T08:09:08;3.58;;;1.77;;
31638;SDS011;18248;51.522;7.020;2022-10-16T08:12:07;5.15;;;1.35;;
31638;SDS011;18248;51.522;7.020;2022-10-16T08:15:05;4.07;;;1.38;;
31638;SDS011;18248;51.522;7.020;2022-10-16T08:18:05;6.18;;;1.60;;
31638;SDS011;18248;51.522;7.020;2022-10-16T08:21:04;5.60;;;2.17;;
31638;SDS011;18248;51.522;7.020;2022-10-16T08:24:04;5.10;;;1.38;;
31638;SDS011;18248;51.522;7.020;2022-10-16T08:27:02;3.35;;;1.30;;
31638;SDS011;18248;51.522;7.020;2022-10-16T08:30:01;6.72;;;1.10;;
31638;SDS011;18248;51.522;7.020;2022-10-16T08:33:01;6.20;;;1.65;;
31638;SDS011;18248;51.522;7.020;2022-10-16T08:36:00;6.00;;;1.30;;
31638;SDS011;18248;51.522;7.020;2022-10-16T08:38:58;2.08;;;1.08;;
31638;SDS011;18248;51.522;7.020;2022-10-16T08:42:06;3.42;;;1.30;;
31638;SDS011;18248;51.522;7.020;2022-10-16T08:48:43;6.68;;;1.50;;
31638;SDS011;18248;51.522;7.020;2022-10-16T08:51:51;7.53;;;1.50;;
31638;SDS011;18248;51.522;7.020;2022-10-16T08:54:50;4.15;;;1.40;;
31638;SDS011;18248;51.522;7.020;2022-10-16T08:57:53;5.53;;;1.38;;
31638;SDS011;18248;51.522;7.020;2022-10-16T09:00:53;5.40;;;1.40;;
31638;SDS011;18248;51.522;7.020;2022-10-16T09:16:46;10.00;;;1.40;;
31638;SDS011;18248;51.522;7.020;2022-10-16T09:19:53;8.35;;;1.52;;
31638;SDS011;18248;51.522;7.020;2022-10-16T09:26:03;6.82;;;1.42;;
31638;SDS011;18248;51.522;7.020;2022-10-16T09:29:08;7.32;;;1.38;;
31638;SDS011;18248;51.522;7.020;2022-10-16T09:32:12;7.32;;;1.08;;
31638;SDS011;18248;51.522;7.020;2022-10-16T09:35:15;7.70;;;1.40;;
31638;SDS011;18248;51.522;7.020;2022-10-16T09:38:21;7.43;;;1.30;;
31638;SDS011;18248;51.522;7.020;2022-10-16T09:41:27;6.40;;;1.52;;
31638;SDS011;18248;51.522;7.020;2022-10-16T09:44:27;7.07;;;1.15;;
31638;SDS011;18248;51.522;7.020;2022-10-16T09:47:28;4.35;;;1.30;;
31638;SDS011;18248;51.522;7.020;2022-10-16T09:50:28;5.18;;;1.70;;
31638;SDS011;18248;51.522;7.020;2022-10-16T09:53:37;6.30;;;1.30;;
31638;SDS011;18248;51.522;7.020;2022-10-16T09:56:37;4.50;;;1.40;;
31638;SDS011;18248;51.522;7.020;2022-10-16T09:59:47;4.00;;;1.20;;
31638;SDS011;18248;51.522;7.020;2022-10-16T10:02:49;4.95;;;1.30;;
31638;SDS011;18248;51.522;7.020;2022-10-16T10:05:48;5.63;;;1.20;;
31638;SDS011;18248;51.522;7.020;2022-10-16T10:08:52;8.32;;;2.83;;
31638;SDS011;18248;51.522;7.020;2022-10-16T10:11:53;4.90;;;1.13;;
31638;SDS011;18248;51.522;7.020;2022-10-16T10:14:53;4.43;;;1.35;;
31638;SDS011;18248;51.522;7.020;2022-10-16T10:17:54;3.03;;;0.95;;
31638;SDS011;18248;51.522;7.020;2022-10-16T10:20:59;4.68;;;1.30;;
31638;SDS011;18248;51.522;7.020;2022-10-16T10:23:58;7.95;;;1.55;;
31638;SDS011;18248;51.522;7.020;2022-10-16T10:27:00;6.95;;;1.20;;
31638;SDS011;18248;51.522;7.020;2022-10-16T10:37:27;2.55;;;1.00;;
31638;SDS011;18248;51.522;7.020;2022-10-16T10:43:43;1.98;;;1.00;;
31638;SDS011;18248;51.522;7.020;2022-10-16T10:47:12;3.95;;;1.50;;
31638;SDS011;18248;51.522;7.020;2022-10-16T10:50:28;6.82;;;0.80;;
31638;SDS011;18248;51.522;7.020;2022-10-16T10:53:52;1.38;;;0.80;;
31638;SDS011;18248;51.522;7.020;2022-10-16T10:57:22;2.30;;;1.00;;
31638;SDS011;18248;51.522;7.020;2022-10-16T11:06:51;3.13;;;0.95;;
31638;SDS011;18248;51.522;7.020;2022-10-16T11:10:02;9.38;;;1.00;;
31638;SDS011;18248;51.522;7.020;2022-10-16T11:16:36;3.38;;;1.10;;
31638;SDS011;18248;51.522;7.020;2022-10-16T11:20:00;3.97;;;1.30;;
31638;SDS011;18248;51.522;7.020;2022-10-16T11:23:28;2.95;;;0.93;;
31638;SDS011;18248;51.522;7.020;2022-10-16T11:26:39;4.18;;;1.15;;
31638;SDS011;18248;51.522;7.020;2022-10-16T11:29:45;4.55;;;0.95;;
31638;SDS011;18248;51.522;7.020;2022-10-16T11:36:23;4.25;;;0.93;;
31638;SDS011;18248;51.522;7.020;2022-10-16T11:39:33;4.32;;;1.10;;
31638;SDS011;18248;51.522;7.020;2022-10-16T11:42:34;1.95;;;0.73;;
31638;SDS011;18248;51.522;7.020;2022-10-16T11:45:39;3.42;;;0.80;;
31638;SDS011;18248;51.522;7.020;2022-10-16T11:52:12;4.35;;;0.80;;
31638;SDS011;18248;51.522;7.020;2022-10-16T11:55:22;3.63;;;1.02;;
31638;SDS011;18248;51.522;7.020;2022-10-16T12:08:27;3.72;;;0.90;;
31638;SDS011;18248;51.522;7.020;2022-10-16T12:14:35;5.13;;;1.10;;
31638;SDS011;18248;51.522;7.020;2022-10-16T12:20:36;3.00;;;1.05;;
31638;SDS011;18248;51.522;7.020;2022-10-16T12:23:36;2.33;;;0.80;;
31638;SDS011;18248;51.522;7.020;2022-10-16T12:26:48;1.35;;;0.82;;
31638;SDS011;18248;51.522;7.020;2022-10-16T12:29:48;4.57;;;0.82;;
31638;SDS011;18248;51.522;7.020;2022-10-16T12:32:58;3.72;;;0.90;;
31638;SDS011;18248;51.522;7.020;2022-10-16T12:36:02;4.97;;;1.00;;
31638;SDS011;18248;51.522;7.020;2022-10-16T12:39:04;4.22;;;0.90;;
31638;SDS011;18248;51.522;7.020;2022-10-16T12:42:03;3.67;;;1.00;;
31638;SDS011;18248;51.522;7.020;2022-10-16T12:45:21;5.78;;;1.17;;
31638;SDS011;18248;51.522;7.020;2022-10-16T12:48:26;4.78;;;1.20;;
31638;SDS011;18248;51.522;7.020;2022-10-16T12:54:31;2.70;;;1.00;;
31638;SDS011;18248;51.522;7.020;2022-10-16T12:57:37;3.47;;;1.00;;
31638;SDS011;18248;51.522;7.020;2022-10-16T13:01:27;5.95;;;1.05;;
31638;SDS011;18248;51.522;7.020;2022-10-16T13:04:42;5.20;;;1.05;;
31638;SDS011;18248;51.522;7.020;2022-10-16T13:14:21;5.53;;;1.48;;
31638;SDS011;18248;51.522;7.020;2022-10-16T13:21:10;7.35;;;1.38;;
31638;SDS011;18248;51.522;7.020;2022-10-16T13:28:05;2.67;;;1.15;;
31638;SDS011;18248;51.522;7.020;2022-10-16T13:31:09;3.40;;;1.00;;
31638;SDS011;18248;51.522;7.020;2022-10-16T13:34:17;6.78;;;1.30;;
31638;SDS011;18248;51.522;7.020;2022-10-16T13:37:19;6.90;;;1.60;;
31638;SDS011;18248;51.522;7.020;2022-10-16T13:40:23;6.80;;;1.02;;
31638;SDS011;18248;51.522;7.020;2022-10-16T13:46:31;7.97;;;1.30;;
31638;SDS011;18248;51.522;7.020;2022-10-16T13:49:32;4.38;;;0.90;;
31638;SDS011;18248;51.522;7.020;2022-10-16T13:52:31;5.65;;;1.10;;
31638;SDS011;18248;51.522;7.020;2022-10-16T13:55:30;4.68;;;1.35;;
31638;SDS011;18248;51.522;7.020;2022-10-16T13:58:29;4.53;;;1.20;;
31638;SDS011;18248;51.522;7.020;2022-10-16T14:01:30;4.03;;;1.25;;
31638;SDS011;18248;51.522;7.020;2022-10-16T14:04:32;5.97;;;1.00;;
31638;SDS011;18248;51.522;7.020;2022-10-16T14:07:31;4.25;;;1.00;;
31638;SDS011;18248;51.522;7.020;2022-10-16T14:10:32;1.98;;;0.60;;
31638;SDS011;18248;51.522;7.020;2022-10-16T14:13:32;3.03;;;0.70;;
31638;SDS011;18248;51.522;7.020;2022-10-16T14:16:35;6.68;;;1.02;;
31638;SDS011;18248;51.522;7.020;2022-10-16T14:19:33;2.97;;;1.08;;
31638;SDS011;18248;51.522;7.020;2022-10-16T14:22:35;5.20;;;1.15;;
31638;SDS011;18248;51.522;7.020;2022-10-16T14:25:43;2.70;;;0.80;;
31638;SDS011;18248;51.522;7.020;2022-10-16T14:28:43;3.83;;;0.93;;
31638;SDS011;18248;51.522;7.020;2022-10-16T14:31:42;2.78;;;0.60;;
31638;SDS011;18248;51.522;7.020;2022-10-16T14:34:54;2.40;;;0.70;;
31638;SDS011;18248;51.522;7.020;2022-10-16T14:37:53;2.65;;;0.70;;
31638;SDS011;18248;51.522;7.020;2022-10-16T14:40:53;2.13;;;0.60;;
31638;SDS011;18248;51.522;7.020;2022-10-16T14:43:55;4.45;;;1.40;;
31638;SDS011;18248;51.522;7.020;2022-10-16T14:46:56;4.50;;;1.27;;
31638;SDS011;18248;51.522;7.020;2022-10-16T14:49:55;3.70;;;1.00;;
31638;SDS011;18248;51.522;7.020;2022-10-16T14:52:56;5.18;;;1.17;;
31638;SDS011;18248;51.522;7.020;2022-10-16T14:55:56;3.50;;;0.70;;
31638;SDS011;18248;51.522;7.020;2022-10-16T14:58:54;2.83;;;0.75;;
31638;SDS011;18248;51.522;7.020;2022-10-16T15:01:53;6.13;;;0.88;;
31638;SDS011;18248;51.522;7.020;2022-10-16T15:04:53;3.88;;;1.10;;
31638;SDS011;18248;51.522;7.020;2022-10-16T15:07:52;3.53;;;1.20;;
31638;SDS011;18248;51.522;7.020;2022-10-16T15:10:52;3.50;;;1.17;;
31638;SDS011;18248;51.522;7.020;2022-10-16T15:13:51;2.53;;;1.00;;
31638;SDS011;18248;51.522;7.020;2022-10-16T15:16:49;3.00;;;1.27;;
31638;SDS011;18248;51.522;7.020;2022-10-16T15:19:48;1.75;;;1.00;;
31638;SDS011;18248;51.522;7.020;2022-10-16T15:22:46;3.55;;;1.10;;
31638;SDS011;18248;51.522;7.020;2022-10-16T15:25:48;2.45;;;0.80;;
31638;SDS011;18248;51.522;7.020;2022-10-16T15:28:51;2.10;;;0.90;;
31638;SDS011;18248;51.522;7.020;2022-10-16T15:31:50;4.50;;;1.10;;
31638;SDS011;18248;51.522;7.020;2022-10-16T15:34:49;5.25;;;1.35;;
31638;SDS011;18248;51.522;7.020;2022-10-16T15:37:47;8.38;;;1.20;;
31638;SDS011;18248;51.522;7.020;2022-10-16T15:40:46;2.67;;;1.25;;
31638;SDS011;18248;51.522;7.020;2022-10-16T15:43:47;3.85;;;0.80;;
31638;SDS011;18248;51.522;7.020;2022-10-16T15:46:47;2.95;;;1.20;;
31638;SDS011;18248;51.522;7.020;2022-10-16T15:49:45;4.03;;;1.38;;
31638;SDS011;18248;51.522;7.020;2022-10-16T15:52:44;3.97;;;1.08;;
31638;SDS011;18248;51.522;7.020;2022-10-16T15:55:42;5.68;;;1.30;;
31638;SDS011;18248;51.522;7.020;2022-10-16T15:58:42;3.22;;;1.40;;
31638;SDS011;18248;51.522;7.020;2022-10-16T16:01:42;3.40;;;1.10;;
31638;SDS011;18248;51.522;7.020;2022-10-16T16:04:40;5.03;;;1.27;;
31638;SDS011;18248;51.522;7.020;2022-10-16T16:07:39;6.75;;;1.23;;
31638;SDS011;18248;51.522;7.020;2022-10-16T16:10:38;6.88;;;1.27;;
31638;SDS011;18248;51.522;7.020;2022-10-16T16:13:37;2.28;;;1.00;;
31638;SDS011;18248;51.522;7.020;2022-10-16T16:16:36;3.65;;;1.30;;
31638;SDS011;18248;51.522;7.020;2022-10-16T16:19:36;4.10;;;1.10;;
31638;SDS011;18248;51.522;7.020;2022-10-16T16:22:34;8.10;;;0.88;;
31638;SDS011;18248;51.522;7.020;2022-10-16T16:25:34;7.00;;;1.42;;
31638;SDS011;18248;51.522;7.020;2022-10-16T16:28:32;4.93;;;1.50;;
31638;SDS011;18248;51.522;7.020;2022-10-16T16:31:32;12.68;;;1.77;;
31638;SDS011;18248;51.522;7.020;2022-10-16T16:34:32;10.38;;;1.45;;
31638;SDS011;18248;51.522;7.020;2022-10-16T16:37:30;5.72;;;1.33;;
31638;SDS011;18248;51.522;7.020;2022-10-16T16:40:29;6.00;;;1.30;;
31638;SDS011;18248;51.522;7.020;2022-10-16T16:43:30;4.10;;;1.33;;
31638;SDS011;18248;51.522;7.020;2022-10-16T16:46:30;4.35;;;1.33;;
31638;SDS011;18248;51.522;7.020;2022-10-16T16:49:29;7.10;;;1.40;;
31638;SDS011;18248;51.522;7.020;2022-10-16T16:52:28;10.50;;;2.00;;
31638;SDS011;18248;51.522;7.020;2022-10-16T16:55:27;5.40;;;1.75;;
31638;SDS011;18248;51.522;7.020;2022-10-16T16:58:27;5.72;;;1.70;;
31638;SDS011;18248;51.522;7.020;2022-10-16T17:01:26;4.95;;;1.35;;
31638;SDS011;18248;51.522;7.020;2022-10-16T17:04:25;9.57;;;1.70;;
31638;SDS011;18248;51.522;7.020;2022-10-16T17:07:24;14.32;;;1.70;;
31638;SDS011;18248;51.522;7.020;2022-10-16T17:10:24;6.53;;;2.10;;
31638;SDS011;18248;51.522;7.020;2022-10-16T17:13:24;8.40;;;2.78;;
31638;SDS011;18248;51.522;7.020;2022-10-16T17:16:25;5.90;;;2.30;;
31638;SDS011;18248;51.522;7.020;2022-10-16T17:19:30;6.97;;;2.22;;
31638;SDS011;18248;51.522;7.020;2022-10-16T17:22:28;8.13;;;1.75;;
31638;SDS011;18248;51.522;7.020;2022-10-16T17:25:28;9.63;;;2.15;;
31638;SDS011;18248;51.522;7.020;2022-10-16T17:28:26;6.07;;;1.67;;
31638;SDS011;18248;51.522;7.020;2022-10-16T17:31:29;3.88;;;1.85;;
31638;SDS011;18248;51.522;7.020;2022-10-16T17:34:29;6.22;;;1.92;;
31638;SDS011;18248;51.522;7.020;2022-10-16T17:37:29;5.55;;;2.28;;
31638;SDS011;18248;51.522;7.020;2022-10-16T17:40:28;9.40;;;2.50;;
31638;SDS011;18248;51.522;7.020;2022-10-16T17:43:26;10.43;;;2.40;;
31638;SDS011;18248;51.522;7.020;2022-10-16T17:46:25;4.95;;;2.25;;
31638;SDS011;18248;51.522;7.020;2022-10-16T17:49:25;5.88;;;2.10;;
31638;SDS011;18248;51.522;7.020;2022-10-16T17:52:24;5.88;;;2.35;;
31638;SDS011;18248;51.522;7.020;2022-10-16T17:55:23;8.98;;;2.83;;
31638;SDS011;18248;51.522;7.020;2022-10-16T17:58:21;5.82;;;2.55;;
31638;SDS011;18248;51.522;7.020;2022-10-16T18:04:20;11.73;;;2.90;;
31638;SDS011;18248;51.522;7.020;2022-10-16T18:07:19;5.10;;;2.53;;
31638;SDS011;18248;51.522;7.020;2022-10-16T18:10:18;5.85;;;2.80;;
31638;SDS011;18248;51.522;7.020;2022-10-16T18:13:17;7.32;;;3.20;;
31638;SDS011;18248;51.522;7.020;2022-10-16T18:16:15;7.75;;;2.85;;
31638;SDS011;18248;51.522;7.020;2022-10-16T18:19:14;5.93;;;2.45;;
31638;SDS011;18248;51.522;7.020;2022-10-16T18:22:12;6.53;;;3.00;;
31638;SDS011;18248;51.522;7.020;2022-10-16T18:25:11;8.85;;;3.05;;
31638;SDS011;18248;51.522;7.020;2022-10-16T18:28:09;6.13;;;3.10;;
31638;SDS011;18248;51.522;7.020;2022-10-16T18:31:10;6.60;;;2.95;;
31638;SDS011;18248;51.522;7.020;2022-10-16T18:34:10;6.28;;;2.80;;
31638;SDS011;18248;51.522;7.020;2022-10-16T18:37:09;8.25;;;3.83;;
31638;SDS011;18248;51.522;7.020;2022-10-16T18:40:09;10.82;;;3.67;;
31638;SDS011;18248;51.522;7.020;2022-10-16T18:43:07;11.07;;;4.10;;
31638;SDS011;18248;51.522;7.020;2022-10-16T18:46:07;11.93;;;4.95;;
31638;SDS011;18248;51.522;7.020;2022-10-16T18:49:08;10.38;;;4.68;;
31638;SDS011;18248;51.522;7.020;2022-10-16T18:52:07;8.60;;;4.35;;
31638;SDS011;18248;51.522;7.020;2022-10-16T18:55:07;11.50;;;4.57;;
31638;SDS011;18248;51.522;7.020;2022-10-16T18:58:06;9.30;;;4.28;;
31638;SDS011;18248;51.522;7.020;2022-10-16T19:01:05;10.20;;;4.20;;
31638;SDS011;18248;51.522;7.020;2022-10-16T19:04:09;9.50;;;4.18;;
31638;SDS011;18248;51.522;7.020;2022-10-16T19:07:09;7.13;;;3.78;;
31638;SDS011;18248;51.522;7.020;2022-10-16T19:10:08;6.88;;;3.83;;
31638;SDS011;18248;51.522;7.020;2022-10-16T19:13:07;14.23;;;4.60;;
31638;SDS011;18248;51.522;7.020;2022-10-16T19:16:11;8.55;;;4.13;;
31638;SDS011;18248;51.522;7.020;2022-10-16T19:19:13;10.57;;;4.30;;
31638;SDS011;18248;51.522;7.020;2022-10-16T19:22:13;13.13;;;4.95;;
31638;SDS011;18248;51.522;7.020;2022-10-16T19:25:24;20.48;;;5.00;;
31638;SDS011;18248;51.522;7.020;2022-10-16T19:28:24;9.35;;;4.43;;
31638;SDS011;18248;51.522;7.020;2022-10-16T19:31:24;14.18;;;4.00;;
31638;SDS011;18248;51.522;7.020;2022-10-16T19:34:24;6.68;;;3.58;;
31638;SDS011;18248;51.522;7.020;2022-10-16T19:37:24;7.53;;;3.85;;
31638;SDS011;18248;51.522;7.020;2022-10-16T19:40:24;8.25;;;4.25;;
31638;SDS011;18248;51.522;7.020;2022-10-16T19:43:23;9.05;;;3.50;;
31638;SDS011;18248;51.522;7.020;2022-10-16T19:46:22;5.40;;;2.97;;
31638;SDS011;18248;51.522;7.020;2022-10-16T19:49:22;5.40;;;3.20;;